createdAt,value
2017-11-23T00:01:01.190Z,94.40
2017-11-23T00:03:32.306Z,94.40
2017-11-23T00:06:04.153Z,93.10
2017-11-23T00:08:35.499Z,93.10
2017-11-23T00:11:06.877Z,93.10
2017-11-23T00:13:40.868Z,93.00
2017-11-23T00:16:12.185Z,93.20
2017-11-23T00:18:43.859Z,93.60
2017-11-23T00:21:14.617Z,93.30
2017-11-23T00:23:45.835Z,93.40
2017-11-23T00:26:17.520Z,93.20
2017-11-23T00:28:49.260Z,93.50
2017-11-23T00:31:20.402Z,93.50
2017-11-23T00:33:52.069Z,93.80
2017-11-23T00:36:23.226Z,93.50
2017-11-23T00:38:54.280Z,93.70
2017-11-23T00:41:25.379Z,94.00
2017-11-23T00:43:56.456Z,93.70
2017-11-23T00:46:28.186Z,94.30
2017-11-23T00:48:59.763Z,94.30
2017-11-23T00:51:30.548Z,94.60
2017-11-23T00:54:01.452Z,94.80
2017-11-23T00:56:32.585Z,94.70
2017-11-23T00:59:04.405Z,95.50
2017-11-23T01:01:35.238Z,95.90
2017-11-23T01:04:06.014Z,96.70
2017-11-23T01:06:37.627Z,97.00
2017-11-23T01:09:08.313Z,97.00
2017-11-23T01:11:39.455Z,97.20
2017-11-23T01:14:11.634Z,97.50
2017-11-23T01:16:42.375Z,97.40
2017-11-23T01:19:13.732Z,97.20
2017-11-23T01:21:45.221Z,97.50
2017-11-23T01:24:23.528Z,97.50
2017-11-23T01:26:56.505Z,96.50
2017-11-23T01:29:28.714Z,96.40
2017-11-23T01:31:59.853Z,96.60
2017-11-23T01:34:31.275Z,96.80
2017-11-23T01:37:06.188Z,97.00
2017-11-23T01:39:37.328Z,97.30
2017-11-23T01:42:09.525Z,97.50
2017-11-23T01:44:41.488Z,97.40
2017-11-23T01:47:12.610Z,97.40
2017-11-23T01:49:44.210Z,97.70
2017-11-23T01:52:15.821Z,97.70
2017-11-23T01:54:46.669Z,98.00
2017-11-23T01:57:17.862Z,98.10
2017-11-23T01:59:49.582Z,97.50
2017-11-23T02:02:20.593Z,98.10
2017-11-23T02:04:53.266Z,97.70
2017-11-23T02:07:24.621Z,97.70
2017-11-23T02:09:56.079Z,97.20
2017-11-23T02:12:28.056Z,97.20
2017-11-23T02:15:00.197Z,96.90
2017-11-23T02:17:31.415Z,96.90
2017-11-23T02:20:02.887Z,96.40
2017-11-23T02:22:34.243Z,96.90
2017-11-23T02:25:06.505Z,96.40
2017-11-23T02:27:37.690Z,96.10
2017-11-23T02:30:09.213Z,95.90
2017-11-23T02:32:40.509Z,95.80
2017-11-23T02:35:13.170Z,95.70
2017-11-23T02:37:44.074Z,95.10
2017-11-23T03:13:03.279Z,92.70
2017-11-23T03:15:45.271Z,92.70
2017-11-23T03:18:30.879Z,92.70
2017-11-23T03:21:02.927Z,93.00
2017-11-23T03:23:42.372Z,93.30
2017-11-23T03:29:05.061Z,93.00
2017-11-23T03:31:35.715Z,93.20
2017-11-23T03:34:07.835Z,92.70
2017-11-23T03:36:38.530Z,92.80
2017-11-23T03:39:09.207Z,92.80
2017-11-23T03:41:40.072Z,92.70
2017-11-23T03:44:12.188Z,92.80
2017-11-23T03:49:48.233Z,92.80
2017-11-23T03:52:37.795Z,92.90
2017-11-23T03:55:08.761Z,93.30
2017-11-23T03:57:39.383Z,93.40
2017-11-23T04:00:10.738Z,93.40
2017-11-23T04:02:50.515Z,93.40
2017-11-23T04:05:21.135Z,93.10
2017-11-23T04:08:09.239Z,92.90
2017-11-23T04:11:01.413Z,93.30
2017-11-23T04:13:44.143Z,93.60
2017-11-23T04:16:16.730Z,93.40
2017-11-23T04:18:53.486Z,93.40
2017-11-23T04:21:28.603Z,93.40
2017-11-23T04:24:01.276Z,93.50
2017-11-23T04:26:46.646Z,93.50
2017-11-23T04:30:15.624Z,93.70
2017-11-23T04:36:13.346Z,93.50
2017-11-23T04:38:46.039Z,93.40
2017-11-23T04:41:22.197Z,93.40
2017-11-23T04:44:05.401Z,93.70
2017-11-23T04:46:38.050Z,93.50
2017-11-23T04:49:16.178Z,93.50
2017-11-23T04:51:54.129Z,93.50
2017-11-23T04:57:29.961Z,93.70
2017-11-23T05:00:11.679Z,93.70
2017-11-23T05:02:42.352Z,93.70
2017-11-23T05:05:13.150Z,93.50
2017-11-23T05:07:45.951Z,93.70
2017-11-23T05:10:18.500Z,93.80
2017-11-23T05:12:50.066Z,93.70
2017-11-23T05:15:22.423Z,93.70
2017-11-23T05:17:54.374Z,93.70
2017-11-23T05:20:39.442Z,94.10
2017-11-23T05:23:12.442Z,93.80
2017-11-23T05:25:43.317Z,94.20
2017-11-23T05:28:14.196Z,94.10
2017-11-23T05:30:52.956Z,94.20
2017-11-23T05:33:28.701Z,94.10
2017-11-23T05:36:06.334Z,94.20
2017-11-23T05:38:38.262Z,94.10
2017-11-23T05:41:08.992Z,94.10
2017-11-23T05:43:39.705Z,94.10
2017-11-23T05:46:15.226Z,93.70
2017-11-23T05:48:46.034Z,93.90
2017-11-23T05:51:24.444Z,94.00
2017-11-23T05:53:54.979Z,94.40
2017-11-23T05:56:25.349Z,94.20
2017-11-23T05:58:56.343Z,94.00
2017-11-23T06:01:26.848Z,94.10
2017-11-23T06:03:57.833Z,94.30
2017-11-23T06:06:34.244Z,94.00
2017-11-23T06:09:06.125Z,94.20
2017-11-23T06:11:38.499Z,94.30
2017-11-23T06:14:12.814Z,94.40
2017-11-23T06:16:46.784Z,94.40
2017-11-23T06:19:20.623Z,94.40
2017-11-23T06:21:56.278Z,94.30
2017-11-23T06:24:41.846Z,94.10
2017-11-23T06:27:15.194Z,94.20
2017-11-23T06:32:49.130Z,94.30
2017-11-23T06:35:32.263Z,94.30
2017-11-23T06:38:06.398Z,94.30
2017-11-23T06:41:00.304Z,94.20
2017-11-23T06:43:50.108Z,94.20
2017-11-23T06:46:24.349Z,94.50
2017-11-23T06:49:04.910Z,94.60
2017-11-23T06:51:36.379Z,94.60
2017-11-23T06:54:13.918Z,94.60
2017-11-23T06:56:45.784Z,94.50
2017-11-23T06:59:26.054Z,94.70
2017-11-23T07:02:22.702Z,94.90
2017-11-23T07:05:03.589Z,94.90
2017-11-23T07:10:16.705Z,94.40
2017-11-23T07:15:39.283Z,94.20
2017-11-23T07:18:17.752Z,94.30
2017-11-23T07:20:58.732Z,94.40
2017-11-23T07:23:37.999Z,94.60
2017-11-23T07:35:07.137Z,94.70
2017-11-23T07:37:40.544Z,94.60
2017-11-23T07:40:13.973Z,94.90
2017-11-23T07:43:25.527Z,94.80
2017-11-23T07:46:05.374Z,94.90
2017-11-23T07:48:38.417Z,95.10
2017-11-23T07:51:10.031Z,95.00
2017-11-23T07:53:42.089Z,95.20
2017-11-23T07:59:10.170Z,95.50
2017-11-23T08:01:46.954Z,95.60
2017-11-23T08:04:20.870Z,95.40
2017-11-23T08:07:14.644Z,95.50
2017-11-23T08:10:10.632Z,95.50
2017-11-23T08:15:23.287Z,95.60
2017-11-23T08:17:57.888Z,95.60
2017-11-23T08:20:41.234Z,95.70
2017-11-23T08:23:14.540Z,95.70
2017-11-23T08:25:49.049Z,95.50
2017-11-23T08:28:32.435Z,95.30
2017-11-23T08:31:06.678Z,95.40
2017-11-23T08:33:43.941Z,95.30
2017-11-23T08:36:28.503Z,95.50
2017-11-23T08:39:06.070Z,95.30
2017-11-23T08:41:45.175Z,95.40
2017-11-23T08:44:18.752Z,94.70
2017-11-23T08:46:52.524Z,94.00
2017-11-23T08:49:30.686Z,93.80
2017-11-23T08:52:07.153Z,93.50
2017-11-23T08:54:53.747Z,93.50
2017-11-23T08:57:24.593Z,93.10
2017-11-23T08:59:56.237Z,93.00
2017-11-23T09:02:43.134Z,92.60
2017-11-23T09:05:54.430Z,93.70
2017-11-23T09:08:25.767Z,94.20
2017-11-23T09:11:00.666Z,93.10
2017-11-23T09:13:33.085Z,92.60
2017-11-23T09:16:18.642Z,92.30
2017-11-23T09:18:51.322Z,92.30
2017-11-23T09:21:21.815Z,92.20
2017-11-23T09:23:53.520Z,91.90
2017-11-23T09:27:10.816Z,91.50
2017-11-23T09:29:41.195Z,92.30
2017-11-23T09:32:11.701Z,92.80
2017-11-23T09:34:42.841Z,93.10
2017-11-23T09:37:16.755Z,93.00
2017-11-23T09:39:52.599Z,92.90
2017-11-23T09:46:49.682Z,92.70
2017-11-23T09:49:20.641Z,93.00
2017-11-23T09:51:51.458Z,93.00
2017-11-23T09:54:22.032Z,92.60
2017-11-23T10:00:29.110Z,92.70
2017-11-23T10:03:01.578Z,92.60
2017-11-23T10:05:32.486Z,92.90
2017-11-23T10:08:11.432Z,93.50
2017-11-23T10:10:42.682Z,93.30
2017-11-23T10:18:53.598Z,93.50
2017-11-23T10:21:24.370Z,93.10
2017-11-23T10:23:57.536Z,93.60
2017-11-23T10:26:43.923Z,93.90
2017-11-23T10:29:28.790Z,93.90
2017-11-23T10:32:00.568Z,94.10
2017-11-23T10:34:34.740Z,94.30
2017-11-23T10:37:10.600Z,95.60
2017-11-23T10:39:41.338Z,96.60
2017-11-23T10:42:42.613Z,95.70
2017-11-23T10:45:13.936Z,95.70
2017-11-23T10:48:06.104Z,95.50
2017-11-23T10:50:43.348Z,95.30
2017-11-23T10:53:15.185Z,95.00
2017-11-23T10:55:50.246Z,95.10
2017-11-23T11:15:10.667Z,95.10
2017-11-23T11:41:06.240Z,99.90
2017-11-23T11:46:24.063Z,99.90
2017-11-23T11:48:59.729Z,99.90
2017-11-23T11:51:35.610Z,99.90
2017-11-23T11:54:12.073Z,99.90
2017-11-23T11:57:08.068Z,99.90
2017-11-23T11:59:41.988Z,99.90
2017-11-23T12:12:27.563Z,99.90
2017-11-23T12:15:09.873Z,99.90
2017-11-23T12:17:57.983Z,99.90
2017-11-23T12:20:48.645Z,99.90
2017-11-23T12:24:42.713Z,99.90
2017-11-23T12:27:18.981Z,99.90
2017-11-23T12:36:31.267Z,99.90
2017-11-23T12:39:17.867Z,99.90
2017-11-23T12:48:49.772Z,99.90
2017-11-23T12:51:35.173Z,99.90
2017-11-23T12:54:16.653Z,99.90
2017-11-23T12:57:57.445Z,99.90
2017-11-23T13:00:44.845Z,99.90
2017-11-23T13:03:18.940Z,99.90
2017-11-23T13:06:03.390Z,99.90
2017-11-23T13:08:35.016Z,99.90
2017-11-23T13:11:06.225Z,99.90
2017-11-23T13:13:37.929Z,99.90
2017-11-23T13:16:08.832Z,99.90
2017-11-23T13:18:41.715Z,99.90
2017-11-23T13:21:14.943Z,99.90
2017-11-23T13:23:45.767Z,99.90
2017-11-23T13:26:16.862Z,99.90
2017-11-23T13:28:48.421Z,99.90
2017-11-23T13:31:21.348Z,99.90
2017-11-23T13:33:51.964Z,99.90
2017-11-23T13:36:23.875Z,99.90
2017-11-23T13:38:54.384Z,99.90
2017-11-23T13:41:24.931Z,99.90
2017-11-23T13:43:56.337Z,99.90
2017-11-23T13:46:39.000Z,99.90
2017-11-23T13:49:12.454Z,99.90
2017-11-23T13:51:42.788Z,99.90
2017-11-23T13:54:13.162Z,99.90
2017-11-23T13:56:46.624Z,99.90
2017-11-23T13:59:17.384Z,99.90
2017-11-23T14:01:48.747Z,99.90
2017-11-23T14:04:21.469Z,99.90
2017-11-23T14:06:52.853Z,99.90
2017-11-23T14:09:23.578Z,99.90
2017-11-23T14:11:54.143Z,99.90
2017-11-23T14:14:24.633Z,99.90
2017-11-23T14:16:56.038Z,99.90
2017-11-23T14:19:26.801Z,99.90
2017-11-23T14:21:57.213Z,99.90
2017-11-23T14:24:28.130Z,99.90
2017-11-23T14:27:00.219Z,99.90
2017-11-23T14:29:31.206Z,99.90
2017-11-23T14:32:04.042Z,99.90
2017-11-23T14:34:36.372Z,99.90
2017-11-23T14:37:07.329Z,99.90
2017-11-23T14:39:37.704Z,99.90
2017-11-23T14:42:08.058Z,99.90
2017-11-23T14:44:48.031Z,99.90
2017-11-23T14:47:19.352Z,99.90
2017-11-23T14:49:50.038Z,99.90
2017-11-23T14:52:21.023Z,99.90
2017-11-23T14:54:58.233Z,99.90
2017-11-23T14:57:29.546Z,99.90
2017-11-23T14:59:59.909Z,99.90
2017-11-23T15:02:31.801Z,99.90
2017-11-23T15:05:02.152Z,99.90
2017-11-23T15:07:33.269Z,99.90
2017-11-23T15:10:03.664Z,99.90
2017-11-23T15:12:34.921Z,99.90
2017-11-23T15:15:06.977Z,99.90
2017-11-23T15:17:38.270Z,99.90
2017-11-23T15:20:09.572Z,99.90
2017-11-23T15:22:40.334Z,99.90
2017-11-23T15:25:10.752Z,99.90
2017-11-23T15:27:43.468Z,99.90
2017-11-23T15:30:13.845Z,99.90
2017-11-23T15:32:45.876Z,99.90
2017-11-23T15:35:16.447Z,99.90
2017-11-23T15:37:47.212Z,99.90
2017-11-23T15:40:17.628Z,99.90
2017-11-23T15:42:48.912Z,99.90
2017-11-23T15:45:20.333Z,99.90
2017-11-23T15:47:50.696Z,99.90
2017-11-23T15:50:29.142Z,99.90
2017-11-23T15:53:00.643Z,99.90
2017-11-23T15:55:35.971Z,99.90
2017-11-23T15:58:08.602Z,99.90
2017-11-23T16:00:40.138Z,99.90
2017-11-23T16:03:11.132Z,99.90
2017-11-23T16:05:41.938Z,99.90
2017-11-23T16:08:14.733Z,99.90
2017-11-23T16:10:46.329Z,99.90
2017-11-23T16:13:17.562Z,99.90
2017-11-23T16:15:51.497Z,99.90
2017-11-23T16:18:22.773Z,99.90
2017-11-23T16:20:54.731Z,99.90
2017-11-23T16:23:32.602Z,99.90
2017-11-23T16:26:11.620Z,99.90
2017-11-23T16:28:43.879Z,99.90
2017-11-23T16:31:16.612Z,99.90
2017-11-23T16:33:48.938Z,99.90
2017-11-23T16:36:49.994Z,99.90
2017-11-23T16:39:26.561Z,99.90
2017-11-23T16:47:08.260Z,99.90
2017-11-23T16:49:48.454Z,99.90
2017-11-23T16:52:33.982Z,99.90
2017-11-23T16:55:10.239Z,99.90
2017-11-23T16:58:02.466Z,99.90
2017-11-23T17:00:52.671Z,99.90
2017-11-23T17:03:30.654Z,99.90
2017-11-23T17:06:21.857Z,99.90
2017-11-23T17:09:03.280Z,99.90
2017-11-23T17:11:40.579Z,99.90
2017-11-23T17:17:02.352Z,99.90
2017-11-23T17:19:42.959Z,99.90
2017-11-23T17:22:14.198Z,99.90
2017-11-23T17:25:00.494Z,99.90
2017-11-23T17:27:47.648Z,99.90
2017-11-23T17:30:23.134Z,99.90
2017-11-23T17:32:57.875Z,99.90
2017-11-23T17:35:32.871Z,99.90
2017-11-23T17:38:04.403Z,99.90
2017-11-23T17:40:49.205Z,99.90
2017-11-23T17:43:23.966Z,99.90
2017-11-23T17:45:54.903Z,99.90
2017-11-23T17:48:53.262Z,99.90
2017-11-23T17:51:27.710Z,99.90
2017-11-23T17:54:43.869Z,99.90
2017-11-23T17:57:15.072Z,99.90
2017-11-23T17:59:59.250Z,99.90
2017-11-23T18:02:48.141Z,99.90
2017-11-23T18:05:32.862Z,99.90
2017-11-23T18:08:04.227Z,99.90
2017-11-23T18:10:36.296Z,99.90
2017-11-23T18:13:10.714Z,99.90
2017-11-23T18:15:58.325Z,99.90
2017-11-23T18:18:34.406Z,99.90
2017-11-23T18:21:07.521Z,99.90
2017-11-23T18:26:38.470Z,99.90
2017-11-23T18:29:09.358Z,99.90
2017-11-23T18:32:16.334Z,99.90
2017-11-23T18:34:55.734Z,99.90
2017-11-23T18:37:27.153Z,99.90
2017-11-23T18:40:00.095Z,99.90
2017-11-23T18:42:34.981Z,99.90
2017-11-23T18:45:07.265Z,99.90
2017-11-23T18:47:47.901Z,99.90
2017-11-23T18:50:19.222Z,99.90
2017-11-23T18:52:52.020Z,99.90
2017-11-23T18:55:50.785Z,99.90
2017-11-23T18:58:27.617Z,99.90
2017-11-23T19:01:01.203Z,99.90
2017-11-23T19:03:41.928Z,99.90
2017-11-23T19:06:13.096Z,99.90
2017-11-23T19:09:21.150Z,99.90
2017-11-23T19:11:54.338Z,99.90
2017-11-23T19:14:26.258Z,99.90
2017-11-23T19:17:06.395Z,99.90
2017-11-23T19:19:39.692Z,99.90
2017-11-23T19:22:11.151Z,99.90
2017-11-23T19:24:44.157Z,99.90
2017-11-23T19:30:15.261Z,99.90
2017-11-23T19:35:41.120Z,99.90
2017-11-23T19:38:13.230Z,99.90
2017-11-23T19:41:03.184Z,99.90
2017-11-23T19:43:35.997Z,99.90
2017-11-23T19:46:10.017Z,99.90
2017-11-23T19:48:52.597Z,99.90
2017-11-23T19:51:27.058Z,99.90
2017-11-23T19:54:06.009Z,99.90
2017-11-23T19:56:39.834Z,99.90
2017-11-23T19:59:19.429Z,99.90
2017-11-23T20:01:51.732Z,99.90
2017-11-23T20:04:24.799Z,99.90
2017-11-23T20:06:56.923Z,99.90
2017-11-23T20:09:28.296Z,99.90
2017-11-23T20:12:19.640Z,99.90
2017-11-23T20:14:51.347Z,99.90
2017-11-23T20:17:24.657Z,99.90
2017-11-23T20:19:57.100Z,99.90
2017-11-23T20:22:29.125Z,99.90
2017-11-23T20:24:59.944Z,99.90
2017-11-23T20:27:32.413Z,99.90
2017-11-23T20:30:02.920Z,99.90
2017-11-23T20:32:36.985Z,99.90
2017-11-23T20:35:29.079Z,99.90
2017-11-23T20:38:00.813Z,99.90
2017-11-23T20:40:32.421Z,99.90
2017-11-23T20:43:03.228Z,99.90
2017-11-23T20:45:46.931Z,99.90
2017-11-23T20:48:21.200Z,99.90
2017-11-23T20:50:52.927Z,99.90
2017-11-23T20:54:00.904Z,99.90
2017-11-23T20:56:33.284Z,99.90
2017-11-23T20:59:26.468Z,99.90
2017-11-23T21:02:06.559Z,99.90
2017-11-23T21:04:37.248Z,99.90
2017-11-23T21:07:11.473Z,99.90
2017-11-23T21:10:00.189Z,99.90
2017-11-23T21:12:30.742Z,99.90
2017-11-23T21:15:04.109Z,99.90
2017-11-23T21:17:36.376Z,99.90
2017-11-23T21:20:07.661Z,99.90
2017-11-23T21:22:41.569Z,99.90
2017-11-23T21:25:17.243Z,99.90
2017-11-23T21:27:50.098Z,99.90
2017-11-23T21:30:21.110Z,99.90
2017-11-23T21:33:28.470Z,99.90
2017-11-23T21:36:12.790Z,99.90
2017-11-23T21:38:44.227Z,99.90
2017-11-23T21:41:17.134Z,99.90
2017-11-23T21:44:13.261Z,99.90
2017-11-23T21:46:45.142Z,99.90
2017-11-23T21:49:16.263Z,99.90
2017-11-23T21:51:48.038Z,99.90
2017-11-23T21:54:25.241Z,99.90
2017-11-23T21:56:55.955Z,99.90
2017-11-23T21:59:27.560Z,99.90
2017-11-23T22:02:03.350Z,99.90
2017-11-23T22:04:34.183Z,99.90
2017-11-23T22:07:05.641Z,99.90
2017-11-23T22:09:41.065Z,99.90
2017-11-23T22:12:12.611Z,99.90
2017-11-23T22:14:43.322Z,99.90
2017-11-23T22:17:14.565Z,99.90
2017-11-23T22:19:48.741Z,99.90
2017-11-23T22:22:19.111Z,99.90
2017-11-23T22:24:51.749Z,99.90
2017-11-23T22:27:23.015Z,99.90
2017-11-23T22:29:54.613Z,99.90
2017-11-23T22:32:25.593Z,99.90
2017-11-23T22:34:55.986Z,99.90
2017-11-23T22:37:26.414Z,99.90
2017-11-23T22:39:56.892Z,99.90
2017-11-23T22:42:33.147Z,99.90
2017-11-23T22:45:03.695Z,99.90
2017-11-23T22:47:34.156Z,99.90
2017-11-23T22:53:27.864Z,99.90
2017-11-23T22:55:58.481Z,99.90
2017-11-23T22:58:28.868Z,99.90
2017-11-23T23:01:03.129Z,99.90
2017-11-23T23:03:46.785Z,99.90
2017-11-23T23:06:18.897Z,99.90
2017-11-23T23:08:50.890Z,99.90
2017-11-23T23:11:22.943Z,99.90
2017-11-23T23:13:53.664Z,99.90
2017-11-23T23:16:28.409Z,99.90
2017-11-23T23:18:58.955Z,99.90
2017-11-23T23:21:34.888Z,99.90
2017-11-23T23:24:06.706Z,99.90
2017-11-23T23:26:45.386Z,99.90
2017-11-23T23:29:17.090Z,99.90
2017-11-23T23:31:48.062Z,99.90
2017-11-23T23:34:19.260Z,99.90
2017-11-23T23:36:51.941Z,99.90
2017-11-23T23:39:22.805Z,99.90
2017-11-23T23:41:53.843Z,99.90
2017-11-23T23:44:24.752Z,99.90
2017-11-23T23:46:56.331Z,99.90
2017-11-23T23:49:31.259Z,99.90
2017-11-23T23:52:02.691Z,99.90
2017-11-23T23:54:33.603Z,99.90
2017-11-23T23:57:04.404Z,99.90
2017-11-23T23:59:49.161Z,99.90
